createdAt,value
2023-04-08T00:04:54.020Z,9.75
2023-04-08T00:09:56.997Z,10.38
2023-04-08T00:14:59.853Z,9.65
2023-04-08T00:20:04.458Z,10.80
2023-04-08T00:25:09.434Z,9.02
2023-04-08T00:30:12.619Z,10.90
2023-04-08T00:35:47.298Z,9.30
2023-04-08T00:40:50.307Z,9.88
2023-04-08T00:45:53.149Z,9.52
2023-04-08T00:51:07.148Z,10.88
2023-04-08T00:56:10.283Z,9.77
2023-04-08T01:01:19.855Z,9.55
2023-04-08T01:06:37.946Z,9.48
2023-04-08T01:11:45.824Z,10.27
2023-04-08T01:16:49.362Z,9.00
2023-04-08T01:21:55.984Z,8.40
2023-04-08T01:27:01.695Z,8.95
2023-04-08T01:32:05.487Z,8.23
2023-04-08T01:37:09.260Z,8.23
2023-04-08T01:42:14.240Z,8.23
2023-04-08T01:47:17.740Z,7.97
2023-04-08T01:52:22.216Z,8.88
2023-04-08T01:57:29.628Z,9.05
2023-04-08T02:02:34.384Z,8.67
2023-04-08T02:07:38.564Z,8.50
2023-04-08T02:12:44.120Z,9.73
2023-04-08T02:17:50.494Z,8.57
2023-04-08T02:23:00.950Z,8.60
2023-04-08T02:28:13.039Z,8.70
2023-04-08T02:33:19.014Z,8.60
2023-04-08T02:38:21.956Z,8.43
2023-04-08T02:43:31.817Z,8.73
2023-04-08T02:48:34.623Z,8.75
2023-04-08T02:53:37.432Z,10.00
2023-04-08T02:58:43.233Z,9.20
2023-04-08T03:03:46.136Z,9.15
2023-04-08T03:08:49.330Z,9.48
2023-04-08T03:13:53.586Z,9.20
2023-04-08T03:18:56.446Z,8.90
2023-04-08T03:23:59.254Z,9.95
2023-04-08T03:29:03.392Z,9.85
2023-04-08T03:34:08.545Z,10.50
2023-04-08T03:39:11.436Z,9.93
2023-04-08T03:44:15.581Z,10.25
2023-04-08T03:49:18.314Z,9.45
2023-04-08T03:54:21.139Z,11.02
2023-04-08T03:59:25.834Z,12.27
2023-04-08T04:04:31.488Z,12.02
2023-04-08T04:09:36.312Z,13.05
2023-04-08T04:14:46.938Z,13.23
2023-04-08T04:19:49.711Z,13.65
2023-04-08T04:24:52.467Z,13.32
2023-04-08T04:29:57.027Z,13.98
2023-04-08T04:34:59.813Z,14.68
2023-04-08T04:40:02.635Z,13.82
2023-04-08T04:45:08.025Z,14.45
2023-04-08T04:50:11.350Z,14.27
2023-04-08T04:55:15.716Z,13.85
2023-04-08T05:00:19.915Z,13.32
2023-04-08T05:05:22.811Z,13.48
2023-04-08T05:10:25.865Z,13.25
2023-04-08T05:15:30.034Z,13.70
2023-04-08T05:20:32.784Z,13.50
2023-04-08T05:25:35.630Z,13.48
2023-04-08T05:30:39.870Z,14.48
2023-04-08T05:35:42.608Z,13.15
2023-04-08T05:40:46.437Z,13.30
2023-04-08T05:45:50.679Z,12.90
2023-04-08T05:50:53.438Z,13.55
2023-04-08T05:55:56.422Z,12.60
2023-04-08T06:01:00.815Z,14.35
2023-04-08T06:06:03.609Z,13.27
2023-04-08T06:11:06.455Z,14.45
2023-04-08T06:16:15.569Z,12.52
2023-04-08T06:21:18.669Z,13.43
2023-04-08T06:26:21.582Z,12.02
2023-04-08T06:31:25.719Z,13.38
2023-04-08T06:36:28.705Z,12.57
2023-04-08T06:41:31.461Z,12.93
2023-04-08T06:46:41.603Z,12.85
2023-04-08T06:51:44.347Z,13.45
2023-04-08T06:56:50.083Z,12.30
2023-04-08T07:01:54.361Z,12.48
2023-04-08T07:06:57.842Z,13.00
2023-04-08T07:12:00.866Z,13.00
2023-04-08T07:17:04.990Z,12.25
2023-04-08T07:22:07.915Z,12.20
2023-04-08T07:27:13.375Z,12.82
2023-04-08T07:32:18.693Z,12.05
2023-04-08T07:37:21.687Z,12.82
2023-04-08T07:42:24.474Z,13.07
2023-04-08T07:47:29.049Z,12.10
2023-04-08T07:52:33.344Z,12.80
2023-04-08T07:57:36.351Z,11.65
2023-04-08T08:02:40.654Z,10.52
2023-04-08T08:07:47.497Z,11.48
2023-04-08T08:12:55.188Z,11.88
2023-04-08T08:17:59.587Z,11.32
2023-04-08T08:23:02.454Z,10.40
2023-04-08T08:28:07.654Z,10.73
2023-04-08T08:33:11.733Z,9.98
2023-04-08T08:38:14.727Z,10.63
2023-04-08T08:43:18.659Z,10.20
2023-04-08T08:48:22.886Z,9.32
2023-04-08T08:53:34.250Z,9.52
2023-04-08T08:58:39.069Z,10.07
2023-04-08T09:03:46.500Z,9.77
2023-04-08T09:08:49.884Z,10.17
2023-04-08T09:13:55.042Z,10.15
2023-04-08T09:19:10.422Z,9.05
2023-04-08T09:24:30.367Z,9.00
2023-04-08T09:29:39.676Z,9.20
2023-04-08T09:34:44.167Z,9.15
2023-04-08T09:39:46.919Z,9.30
2023-04-08T09:44:49.878Z,10.85
2023-04-08T09:50:03.145Z,9.85
2023-04-08T09:55:10.334Z,11.18
2023-04-08T10:00:16.099Z,10.05
2023-04-08T10:05:21.790Z,10.52
2023-04-08T10:10:25.424Z,10.13
2023-04-08T10:15:29.502Z,9.63
2023-04-08T10:20:47.460Z,9.95
2023-04-08T10:25:50.573Z,10.50
2023-04-08T10:30:54.102Z,9.93
2023-04-08T10:36:09.688Z,11.60
2023-04-08T10:41:14.343Z,11.55
2023-04-08T10:46:17.376Z,11.73
2023-04-08T10:51:22.798Z,11.18
2023-04-08T10:56:25.893Z,10.93
2023-04-08T11:01:31.730Z,10.40
2023-04-08T11:06:37.887Z,10.40
2023-04-08T11:11:43.103Z,10.63
2023-04-08T11:16:46.412Z,10.93
2023-04-08T11:21:52.638Z,11.27
2023-04-08T11:26:56.976Z,11.85
2023-04-08T11:32:00.830Z,11.20
2023-04-08T11:37:05.234Z,12.85
2023-04-08T11:42:28.588Z,13.75
2023-04-08T11:47:33.574Z,13.82
2023-04-08T11:52:55.526Z,14.73
2023-04-08T11:58:03.384Z,14.60
2023-04-08T12:03:07.001Z,14.10
2023-04-08T12:08:11.185Z,14.30
2023-04-08T12:13:15.680Z,15.32
2023-04-08T12:18:18.475Z,14.80
2023-04-08T12:23:22.743Z,13.10
2023-04-08T12:28:25.891Z,13.40
2023-04-08T12:33:28.676Z,12.52
2023-04-08T12:38:33.530Z,12.45
2023-04-08T12:43:36.321Z,12.68
2023-04-08T12:48:39.163Z,13.45
2023-04-08T12:53:43.333Z,14.80
2023-04-08T12:58:49.376Z,12.55
2023-04-08T13:03:52.545Z,13.80
2023-04-08T13:08:56.773Z,13.15
2023-04-08T13:13:59.557Z,13.52
2023-04-08T13:19:02.420Z,14.05
2023-04-08T13:24:07.217Z,14.35
2023-04-08T13:29:10.088Z,17.75
2023-04-08T13:34:12.868Z,15.27
2023-04-08T13:39:17.136Z,12.77
2023-04-08T13:44:19.930Z,13.82
2023-04-08T13:49:22.722Z,13.00
2023-04-08T13:54:27.693Z,14.68
2023-04-08T13:59:30.485Z,13.68
2023-04-08T14:04:33.621Z,13.68
2023-04-08T14:09:37.752Z,12.45
2023-04-08T14:14:40.732Z,12.98
2023-04-08T14:19:43.563Z,13.73
2023-04-08T14:24:47.696Z,12.98
2023-04-08T14:29:50.529Z,14.00
2023-04-08T14:34:53.440Z,13.57
2023-04-08T14:39:57.604Z,12.88
2023-04-08T14:45:00.944Z,14.43
2023-04-08T14:50:06.194Z,14.45
2023-04-08T14:55:11.025Z,13.75
2023-04-08T15:00:14.787Z,14.15
2023-04-08T15:05:17.681Z,14.43
2023-04-08T15:10:22.067Z,14.77
2023-04-08T15:15:25.236Z,15.43
2023-04-08T15:20:28.112Z,16.15
2023-04-08T15:25:32.822Z,15.50
2023-04-08T15:30:36.128Z,16.05
2023-04-08T15:35:39.684Z,15.55
2023-04-08T15:40:44.989Z,17.15
2023-04-08T15:45:48.912Z,16.02
2023-04-08T15:50:52.086Z,16.30
2023-04-08T15:55:56.248Z,16.65
2023-04-08T16:00:58.990Z,16.88
2023-04-08T16:06:01.740Z,17.35
2023-04-08T16:11:15.185Z,19.08
2023-04-08T16:16:18.089Z,20.05
2023-04-08T16:21:20.925Z,19.50
2023-04-08T16:26:27.142Z,20.00
2023-04-08T16:36:33.745Z,20.60
2023-04-08T16:41:39.460Z,19.35
2023-04-08T16:46:42.394Z,19.63
2023-04-08T16:51:45.114Z,22.80
2023-04-08T16:56:49.173Z,24.55
2023-04-08T17:01:52.032Z,26.02
2023-04-08T17:06:57.188Z,26.00
2023-04-08T17:12:02.122Z,24.38
2023-04-08T17:17:04.893Z,23.05
2023-04-08T17:22:07.704Z,25.42
2023-04-08T17:27:11.949Z,26.25
2023-04-08T17:32:14.853Z,25.92
2023-04-08T17:37:17.566Z,24.25
2023-04-08T17:42:22.827Z,23.90
2023-04-08T17:47:25.609Z,25.30
2023-04-08T17:52:28.369Z,24.70
2023-04-08T17:57:32.958Z,25.92
2023-04-08T18:02:36.959Z,27.10
2023-04-08T18:07:39.976Z,28.55
2023-04-08T18:12:44.123Z,27.90
2023-04-08T18:17:46.999Z,31.00
2023-04-08T18:22:49.786Z,30.95
2023-04-08T18:27:54.006Z,32.95
2023-04-08T18:32:56.913Z,33.40
2023-04-08T18:37:59.805Z,35.25
2023-04-08T18:43:04.972Z,33.30
2023-04-08T18:48:08.332Z,33.17
2023-04-08T18:53:12.370Z,35.55
2023-04-08T18:58:16.789Z,34.28
2023-04-08T19:03:19.721Z,34.20
2023-04-08T19:08:22.687Z,38.22
2023-04-08T19:13:26.839Z,35.80
2023-04-08T19:18:29.681Z,36.47
2023-04-08T19:23:32.841Z,37.58
2023-04-08T19:28:37.380Z,37.95
2023-04-08T19:33:40.292Z,35.10
2023-04-08T19:38:43.421Z,33.22
2023-04-08T19:43:47.714Z,33.13
2023-04-08T19:48:50.572Z,35.17
2023-04-08T19:53:53.605Z,34.75
2023-04-08T19:58:57.894Z,34.92
2023-04-08T20:04:00.655Z,35.20
2023-04-08T20:09:05.576Z,32.88
2023-04-08T20:14:09.992Z,32.45
2023-04-08T20:19:12.787Z,36.58
2023-04-08T20:24:16.214Z,39.08
2023-04-08T20:29:20.668Z,39.08
2023-04-08T20:34:23.482Z,38.28
2023-04-08T20:39:29.865Z,37.28
2023-04-08T20:44:34.010Z,41.17
2023-04-08T20:49:40.816Z,44.65
2023-04-08T20:54:43.630Z,42.13
2023-04-08T20:59:47.765Z,45.22
2023-04-08T21:04:50.924Z,45.03
2023-04-08T21:09:55.813Z,43.67
2023-04-08T21:15:00.023Z,44.50
2023-04-08T21:20:04.415Z,44.85
2023-04-08T21:25:08.580Z,43.35
2023-04-08T21:30:16.846Z,47.72
2023-04-08T21:35:19.646Z,44.45
2023-04-08T21:40:22.431Z,45.03
2023-04-08T21:45:26.560Z,45.83
2023-04-08T21:50:29.428Z,44.00
2023-04-08T21:55:32.190Z,43.35
2023-04-08T22:00:36.340Z,40.15
2023-04-08T22:05:39.087Z,38.25
2023-04-08T22:10:41.976Z,37.55
2023-04-08T22:15:46.573Z,36.42
2023-04-08T22:20:49.360Z,35.42
2023-04-08T22:25:52.124Z,34.97
2023-04-08T22:30:56.277Z,32.53
2023-04-08T22:35:59.148Z,31.20
2023-04-08T22:41:01.944Z,28.75
2023-04-08T22:46:06.254Z,29.15
2023-04-08T22:51:10.236Z,29.00
2023-04-08T22:56:13.357Z,29.88
2023-04-08T23:01:20.682Z,29.75
2023-04-08T23:06:23.432Z,31.92
2023-04-08T23:11:26.238Z,30.95
2023-04-08T23:16:31.499Z,30.83
2023-04-08T23:21:34.320Z,32.40
2023-04-08T23:26:37.336Z,31.55
2023-04-08T23:31:41.588Z,31.20
2023-04-08T23:36:44.385Z,31.27
2023-04-08T23:41:47.344Z,30.15
2023-04-08T23:46:51.588Z,33.05
2023-04-08T23:51:54.578Z,31.48
2023-04-08T23:56:59.873Z,32.20
